createdAt,value
2022-11-05T00:00:34.163Z,8.00
2022-11-05T00:03:19.611Z,8.00
2022-11-05T00:06:19.147Z,8.00
2022-11-05T00:09:04.601Z,8.00
2022-11-05T00:11:55.166Z,8.00
2022-11-05T00:14:42.435Z,8.00
2022-11-05T00:17:10.416Z,8.00
2022-11-05T00:19:38.402Z,8.00
2022-11-05T00:22:26.428Z,7.90
2022-11-05T00:25:11.668Z,7.90
2022-11-05T00:27:39.702Z,7.80
2022-11-05T00:30:10.718Z,7.90
2022-11-05T00:32:38.648Z,7.90
2022-11-05T00:35:07.795Z,7.80
2022-11-05T00:37:36.195Z,7.80
2022-11-05T00:40:07.606Z,7.80
2022-11-05T00:42:52.785Z,7.80
2022-11-05T00:45:22.431Z,7.80
2022-11-05T00:48:07.598Z,7.80
2022-11-05T00:50:35.887Z,7.80
2022-11-05T00:53:04.815Z,7.70
2022-11-05T00:55:38.042Z,7.70
2022-11-05T00:58:08.485Z,7.70
2022-11-05T01:00:40.925Z,7.70
2022-11-05T01:03:11.036Z,7.70
2022-11-05T01:05:44.426Z,7.70
2022-11-05T01:08:13.434Z,7.70
2022-11-05T01:10:42.378Z,7.60
2022-11-05T01:13:13.126Z,7.70
2022-11-05T01:15:43.688Z,7.70
2022-11-05T01:18:12.205Z,7.60
2022-11-05T01:20:40.906Z,7.60
2022-11-05T01:23:13.583Z,7.60
2022-11-05T01:25:42.548Z,7.50
2022-11-05T01:28:10.798Z,7.60
2022-11-05T01:30:39.523Z,7.60
2022-11-05T01:33:09.482Z,7.50
2022-11-05T01:35:37.764Z,7.50
2022-11-05T01:38:05.707Z,7.50
2022-11-05T01:40:33.815Z,7.50
2022-11-05T01:43:01.755Z,7.50
2022-11-05T01:45:30.070Z,7.50
2022-11-05T01:48:05.542Z,7.40
2022-11-05T01:50:43.310Z,7.40
2022-11-05T01:53:17.347Z,7.40
2022-11-05T01:55:50.411Z,7.40
2022-11-05T01:58:23.666Z,7.40
2022-11-05T02:00:52.106Z,7.50
2022-11-05T02:03:20.700Z,7.40
2022-11-05T02:05:51.986Z,7.40
2022-11-05T02:08:28.269Z,7.40
2022-11-05T02:10:56.709Z,7.30
2022-11-05T02:13:24.672Z,7.40
2022-11-05T02:16:03.197Z,7.30
2022-11-05T02:18:42.239Z,7.30
2022-11-05T02:21:37.926Z,7.20
2022-11-05T02:24:53.395Z,7.20
2022-11-05T02:27:48.102Z,7.20
2022-11-05T02:30:35.782Z,7.10
2022-11-05T02:33:23.368Z,7.10
2022-11-05T02:36:10.107Z,7.10
2022-11-05T02:38:43.284Z,7.00
2022-11-05T02:41:22.719Z,7.00
2022-11-05T02:44:00.455Z,7.00
2022-11-05T02:46:41.607Z,7.00
2022-11-05T02:49:20.513Z,7.00
2022-11-05T02:51:53.815Z,6.90
2022-11-05T02:54:26.699Z,6.90
2022-11-05T02:56:56.594Z,6.90
2022-11-05T02:59:24.635Z,6.90
2022-11-05T03:01:55.004Z,6.80
2022-11-05T03:04:24.704Z,6.80
2022-11-05T03:07:17.503Z,6.80
2022-11-05T03:10:08.840Z,6.70
2022-11-05T03:12:52.238Z,6.80
2022-11-05T03:15:32.879Z,6.70
2022-11-05T03:18:11.370Z,6.70
2022-11-05T03:20:45.397Z,6.70
2022-11-05T03:23:20.312Z,6.70
2022-11-05T03:25:51.060Z,6.60
2022-11-05T03:28:23.138Z,6.60
2022-11-05T03:30:53.527Z,6.60
2022-11-05T03:33:27.259Z,6.50
2022-11-05T03:35:58.033Z,6.50
2022-11-05T03:38:30.484Z,6.50
2022-11-05T03:41:03.782Z,6.50
2022-11-05T03:43:36.380Z,6.50
2022-11-05T03:46:09.485Z,6.40
2022-11-05T03:48:42.852Z,6.40
2022-11-05T03:51:17.532Z,6.40
2022-11-05T03:53:49.434Z,6.40
2022-11-05T03:56:23.139Z,6.40
2022-11-05T03:58:57.549Z,6.40
2022-11-05T04:01:27.052Z,6.40
2022-11-05T04:03:56.681Z,6.40
2022-11-05T04:06:50.346Z,6.40
2022-11-05T04:09:35.954Z,6.40
2022-11-05T04:12:21.827Z,6.30
2022-11-05T04:14:49.914Z,6.30
2022-11-05T04:17:16.933Z,6.30
2022-11-05T04:20:04.684Z,6.30
2022-11-05T04:22:51.887Z,6.30
2022-11-05T04:25:20.990Z,6.20
2022-11-05T04:27:49.552Z,6.20
2022-11-05T04:30:22.969Z,6.20
2022-11-05T04:33:03.423Z,6.10
2022-11-05T04:35:35.229Z,6.10
2022-11-05T04:38:03.540Z,6.10
2022-11-05T04:40:33.003Z,6.10
2022-11-05T04:43:01.366Z,6.10
2022-11-05T04:45:31.978Z,6.10
2022-11-05T04:48:00.000Z,6.10
2022-11-05T04:50:28.771Z,6.10
2022-11-05T04:52:58.179Z,6.10
2022-11-05T04:55:26.204Z,6.10
2022-11-05T04:57:55.424Z,6.10
2022-11-05T05:00:25.817Z,6.10
2022-11-05T05:02:54.228Z,6.10
2022-11-05T05:05:23.228Z,6.10
2022-11-05T05:07:51.303Z,6.00
2022-11-05T05:10:22.153Z,6.00
2022-11-05T05:12:50.615Z,6.00
2022-11-05T05:15:19.914Z,5.90
2022-11-05T05:17:52.076Z,5.90
2022-11-05T05:20:38.012Z,5.90
2022-11-05T05:23:06.373Z,5.80
2022-11-05T05:25:35.755Z,5.80
2022-11-05T05:28:04.058Z,5.80
2022-11-05T05:30:32.176Z,5.80
2022-11-05T05:33:03.253Z,5.80
2022-11-05T05:35:31.733Z,5.80
2022-11-05T05:37:59.814Z,5.80
2022-11-05T05:40:28.189Z,5.70
2022-11-05T05:42:57.688Z,5.70
2022-11-05T05:45:26.350Z,5.70
2022-11-05T05:47:56.617Z,5.80
2022-11-05T05:50:24.866Z,5.80
2022-11-05T05:52:53.495Z,5.80
2022-11-05T05:55:21.467Z,5.80
2022-11-05T05:57:49.735Z,5.80
2022-11-05T06:00:19.864Z,5.80
2022-11-05T06:02:48.153Z,5.80
2022-11-05T06:05:17.902Z,5.80
2022-11-05T06:07:47.089Z,5.80
2022-11-05T06:10:15.497Z,5.80
2022-11-05T06:12:43.673Z,5.80
2022-11-05T06:15:13.447Z,5.80
2022-11-05T06:17:44.558Z,5.80
2022-11-05T06:20:14.063Z,5.80
2022-11-05T06:22:42.440Z,5.80
2022-11-05T06:25:13.148Z,5.80
2022-11-05T06:27:41.391Z,5.80
2022-11-05T06:30:12.965Z,5.80
2022-11-05T06:32:42.761Z,5.80
2022-11-05T06:35:11.054Z,5.90
2022-11-05T06:37:40.845Z,5.90
2022-11-05T06:40:20.723Z,5.90
2022-11-05T06:42:53.303Z,5.90
2022-11-05T06:45:22.147Z,6.00
2022-11-05T06:47:57.708Z,6.00
2022-11-05T06:50:26.635Z,5.90
2022-11-05T06:52:56.308Z,6.00
2022-11-05T06:55:25.362Z,6.00
2022-11-05T06:57:54.492Z,6.00
2022-11-05T07:00:23.459Z,6.00
2022-11-05T07:02:53.248Z,6.00
2022-11-05T07:05:21.599Z,6.00
2022-11-05T07:07:55.843Z,6.00
2022-11-05T07:10:30.333Z,6.00
2022-11-05T07:13:07.859Z,6.00
2022-11-05T07:15:37.095Z,6.00
2022-11-05T07:18:12.182Z,6.10
2022-11-05T07:20:42.585Z,6.10
2022-11-05T07:23:13.834Z,6.20
2022-11-05T07:25:43.752Z,6.20
2022-11-05T07:28:14.450Z,6.20
2022-11-05T07:30:45.545Z,6.20
2022-11-05T07:33:16.790Z,6.20
2022-11-05T07:35:44.925Z,6.20
2022-11-05T07:38:13.460Z,6.20
2022-11-05T07:40:41.532Z,6.20
2022-11-05T07:43:10.363Z,6.30
2022-11-05T07:45:39.122Z,6.40
2022-11-05T07:48:08.260Z,6.40
2022-11-05T07:50:41.189Z,6.50
2022-11-05T07:53:12.375Z,6.60
2022-11-05T07:55:42.161Z,6.70
2022-11-05T07:58:16.186Z,6.80
2022-11-05T08:00:44.611Z,6.80
2022-11-05T08:03:17.508Z,6.90
2022-11-05T08:05:56.718Z,6.90
2022-11-05T08:08:25.056Z,6.90
2022-11-05T08:11:30.606Z,6.90
2022-11-05T08:13:58.790Z,7.00
2022-11-05T08:16:27.158Z,7.10
2022-11-05T08:18:55.386Z,7.10
2022-11-05T08:22:21.409Z,7.20
2022-11-05T08:25:07.628Z,7.30
2022-11-05T08:27:35.889Z,7.40
2022-11-05T08:30:13.926Z,7.50
2022-11-05T08:32:44.559Z,7.60
2022-11-05T08:39:27.219Z,7.80
2022-11-05T08:45:44.300Z,8.00
2022-11-05T08:48:14.886Z,8.10
2022-11-05T08:50:58.381Z,8.20
2022-11-05T08:57:33.414Z,8.40
2022-11-05T09:00:21.930Z,8.50
2022-11-05T09:03:34.040Z,8.60
2022-11-05T09:06:22.348Z,8.60
2022-11-05T09:09:06.764Z,8.70
2022-11-05T09:12:05.762Z,8.70
2022-11-05T09:15:02.822Z,8.90
2022-11-05T09:17:33.928Z,9.00
2022-11-05T09:20:03.774Z,9.00
2022-11-05T09:22:31.887Z,9.10
2022-11-05T09:24:59.906Z,9.30
2022-11-05T09:27:28.249Z,9.30
2022-11-05T09:29:57.567Z,9.30
2022-11-05T09:32:25.714Z,9.40
2022-11-05T09:34:53.739Z,9.50
2022-11-05T09:37:22.086Z,9.60
2022-11-05T09:39:50.035Z,9.60
2022-11-05T09:42:20.188Z,9.70
2022-11-05T09:44:52.275Z,9.80
2022-11-05T09:47:25.286Z,9.90
2022-11-05T09:49:55.992Z,9.90
2022-11-05T09:52:28.077Z,10.00
2022-11-05T09:54:57.462Z,10.10
2022-11-05T09:57:30.080Z,10.20
2022-11-05T10:00:01.704Z,10.30
2022-11-05T10:02:37.051Z,10.40
2022-11-05T10:05:10.248Z,10.40
2022-11-05T10:07:44.840Z,10.60
2022-11-05T10:10:27.597Z,10.60
2022-11-05T10:13:00.022Z,10.70
2022-11-05T10:15:31.224Z,10.80
2022-11-05T10:18:09.037Z,10.90
2022-11-05T10:20:39.559Z,11.00
2022-11-05T10:23:12.868Z,11.10
2022-11-05T10:25:43.596Z,11.10
2022-11-05T10:28:17.018Z,11.20
2022-11-05T10:30:46.365Z,11.20
2022-11-05T10:33:23.240Z,11.20
2022-11-05T10:35:55.648Z,11.20
2022-11-05T10:38:23.758Z,11.40
2022-11-05T10:41:00.647Z,11.40
2022-11-05T10:43:35.091Z,11.50
2022-11-05T10:46:16.180Z,11.60
2022-11-05T10:48:59.186Z,11.70
2022-11-05T10:51:27.874Z,11.80
2022-11-05T10:54:01.852Z,11.90
2022-11-05T10:56:33.803Z,12.00
2022-11-05T10:59:06.741Z,12.10
2022-11-05T11:01:38.084Z,12.10
2022-11-05T11:04:16.292Z,12.20
2022-11-05T11:06:50.858Z,12.30
2022-11-05T11:09:22.366Z,12.40
2022-11-05T11:12:06.272Z,12.50
2022-11-05T11:14:35.189Z,12.60
2022-11-05T11:17:29.338Z,12.60
2022-11-05T11:20:24.595Z,12.70
2022-11-05T11:23:04.633Z,12.80
2022-11-05T11:25:39.666Z,12.90
2022-11-05T11:28:15.919Z,12.90
2022-11-05T11:30:50.240Z,13.00
2022-11-05T11:33:24.394Z,13.00
2022-11-05T11:35:53.851Z,13.00
2022-11-05T11:38:24.647Z,13.00
2022-11-05T11:41:00.749Z,13.20
2022-11-05T11:43:34.576Z,13.30
2022-11-05T11:46:06.980Z,13.40
2022-11-05T11:48:41.156Z,13.40
2022-11-05T11:51:32.023Z,13.40
2022-11-05T11:54:01.589Z,13.60
2022-11-05T11:56:30.395Z,13.60
2022-11-05T11:59:02.607Z,13.60
2022-11-05T12:02:05.422Z,13.60
2022-11-05T12:04:57.790Z,13.70
2022-11-05T12:07:49.702Z,13.80
2022-11-05T12:10:29.577Z,13.90
2022-11-05T12:13:27.123Z,13.80
2022-11-05T12:15:57.756Z,13.80
2022-11-05T12:18:33.911Z,13.80
2022-11-05T12:21:11.776Z,13.70
2022-11-05T12:24:11.516Z,13.80
2022-11-05T12:26:52.057Z,13.90
2022-11-05T12:29:54.059Z,13.90
2022-11-05T12:32:43.398Z,14.00
2022-11-05T12:35:27.237Z,14.00
2022-11-05T12:38:06.988Z,14.00
2022-11-05T12:40:45.107Z,14.00
2022-11-05T12:43:21.448Z,14.00
2022-11-05T12:45:58.895Z,14.00
2022-11-05T12:48:49.170Z,14.00
2022-11-05T12:51:31.185Z,14.00
2022-11-05T12:54:11.954Z,14.00
2022-11-05T12:56:45.207Z,14.00
2022-11-05T12:59:20.804Z,14.00
2022-11-05T13:01:54.734Z,14.00
2022-11-05T13:04:33.848Z,14.00
2022-11-05T13:07:06.635Z,13.90
2022-11-05T13:09:40.988Z,13.80
2022-11-05T13:12:14.015Z,13.70
2022-11-05T13:14:49.230Z,13.60
2022-11-05T13:17:20.572Z,13.50
2022-11-05T13:19:53.594Z,13.50
2022-11-05T13:22:33.932Z,13.50
2022-11-05T13:25:06.373Z,13.50
2022-11-05T13:27:48.961Z,13.40
2022-11-05T13:30:21.953Z,13.40
2022-11-05T13:32:56.244Z,13.40
2022-11-05T13:35:30.186Z,13.40
2022-11-05T13:38:23.391Z,13.40
2022-11-05T13:41:06.180Z,13.40
2022-11-05T13:44:03.598Z,13.30
2022-11-05T13:47:13.219Z,13.20
2022-11-05T13:49:55.154Z,13.10
2022-11-05T13:52:39.199Z,13.00
2022-11-05T13:55:43.754Z,13.00
2022-11-05T13:58:35.070Z,13.10
2022-11-05T14:01:13.002Z,13.20
2022-11-05T14:03:47.801Z,13.20
2022-11-05T14:06:23.283Z,13.20
2022-11-05T14:08:51.489Z,13.20
2022-11-05T14:11:24.727Z,13.10
2022-11-05T14:13:57.512Z,13.10
2022-11-05T14:16:41.285Z,13.00
2022-11-05T14:19:33.417Z,13.00
2022-11-05T14:22:21.768Z,12.90
2022-11-05T14:24:50.197Z,12.90
2022-11-05T14:27:47.648Z,12.90
2022-11-05T14:30:42.077Z,12.80
2022-11-05T14:33:34.391Z,12.90
2022-11-05T14:36:34.311Z,12.90
2022-11-05T14:39:30.134Z,12.80
2022-11-05T14:42:04.443Z,12.80
2022-11-05T14:44:34.994Z,12.80
2022-11-05T14:47:05.248Z,12.70
2022-11-05T14:49:38.294Z,12.80
2022-11-05T14:52:09.839Z,12.70
2022-11-05T14:54:43.554Z,12.70
2022-11-05T14:57:15.539Z,12.70
2022-11-05T15:00:01.906Z,12.70
2022-11-05T15:02:36.399Z,12.60
2022-11-05T15:05:49.698Z,12.60
2022-11-05T15:08:37.907Z,12.60
2022-11-05T15:11:15.720Z,12.60
2022-11-05T15:13:52.494Z,12.60
2022-11-05T15:16:24.626Z,12.50
2022-11-05T15:18:55.175Z,12.50
2022-11-05T15:21:26.322Z,12.40
2022-11-05T15:23:57.425Z,12.40
2022-11-05T15:26:30.391Z,12.40
2022-11-05T15:28:59.030Z,12.30
2022-11-05T15:31:34.388Z,12.30
2022-11-05T15:34:17.394Z,12.30
2022-11-05T15:36:51.601Z,12.20
2022-11-05T15:39:31.479Z,12.20
2022-11-05T15:42:02.134Z,12.20
2022-11-05T15:44:33.042Z,12.10
2022-11-05T15:47:16.028Z,12.10
2022-11-05T15:49:46.518Z,12.10
2022-11-05T15:52:18.328Z,12.00
2022-11-05T15:54:47.061Z,12.00
2022-11-05T15:57:25.466Z,12.00
2022-11-05T15:59:53.763Z,11.90
2022-11-05T16:02:30.940Z,11.90
2022-11-05T16:05:00.148Z,11.80
2022-11-05T16:07:30.029Z,11.80
2022-11-05T16:10:00.239Z,11.80
2022-11-05T16:12:36.342Z,11.80
2022-11-05T16:15:20.639Z,11.80
2022-11-05T16:17:52.221Z,11.70
2022-11-05T16:20:23.901Z,11.70
2022-11-05T16:22:55.150Z,11.60
2022-11-05T16:25:39.367Z,11.60
2022-11-05T16:28:22.035Z,11.60
2022-11-05T16:30:58.470Z,11.60
2022-11-05T16:33:31.943Z,11.50
2022-11-05T16:36:00.287Z,11.40
2022-11-05T16:38:29.609Z,11.50
2022-11-05T16:40:57.846Z,11.40
2022-11-05T16:43:38.242Z,11.40
2022-11-05T16:46:06.856Z,11.30
2022-11-05T16:48:35.087Z,11.30
2022-11-05T16:51:04.409Z,11.30
2022-11-05T16:53:34.343Z,11.30
2022-11-05T16:56:03.729Z,11.20
2022-11-05T16:58:32.536Z,11.20
2022-11-05T17:01:04.731Z,11.20
2022-11-05T17:03:33.231Z,11.20
2022-11-05T17:06:01.471Z,11.20
2022-11-05T17:08:29.777Z,11.20
2022-11-05T17:10:59.173Z,11.10
2022-11-05T17:13:27.456Z,11.10
2022-11-05T17:15:55.604Z,11.00
2022-11-05T17:18:24.191Z,11.00
2022-11-05T17:20:54.577Z,11.10
2022-11-05T17:23:26.316Z,11.10
2022-11-05T17:25:56.711Z,11.10
2022-11-05T17:28:27.294Z,11.10
2022-11-05T17:30:57.211Z,11.00
2022-11-05T17:33:25.593Z,11.00
2022-11-05T17:35:54.349Z,11.00
2022-11-05T17:38:23.868Z,11.00
2022-11-05T17:40:52.591Z,11.00
2022-11-05T17:43:21.563Z,11.00
2022-11-05T17:45:53.098Z,11.00
2022-11-05T17:48:22.114Z,10.90
2022-11-05T17:50:51.575Z,10.90
2022-11-05T17:53:21.366Z,10.90
2022-11-05T17:55:49.705Z,10.90
2022-11-05T17:58:18.066Z,10.90
2022-11-05T18:00:48.628Z,10.90
2022-11-05T18:03:18.660Z,10.80
2022-11-05T18:05:46.691Z,10.80
2022-11-05T18:08:14.873Z,10.80
2022-11-05T18:10:43.583Z,10.80
2022-11-05T18:13:12.533Z,10.80
2022-11-05T18:15:41.361Z,10.80
2022-11-05T18:18:10.112Z,10.80
2022-11-05T18:20:40.301Z,10.80
2022-11-05T18:23:08.390Z,10.80
2022-11-05T18:25:36.662Z,10.80
2022-11-05T18:28:05.014Z,10.80
2022-11-05T18:30:33.129Z,10.80
2022-11-05T18:33:01.790Z,10.70
2022-11-05T18:35:40.787Z,10.70
2022-11-05T18:38:10.587Z,10.70
2022-11-05T18:40:38.745Z,10.70
2022-11-05T18:43:06.820Z,10.70
2022-11-05T18:45:35.329Z,10.70
2022-11-05T18:48:03.805Z,10.70
2022-11-05T18:50:32.072Z,10.70
2022-11-05T18:53:00.152Z,10.70
2022-11-05T18:55:29.561Z,10.70
2022-11-05T18:57:57.873Z,10.70
2022-11-05T19:00:25.984Z,10.70
2022-11-05T19:02:54.249Z,10.70
2022-11-05T19:05:29.034Z,10.60
2022-11-05T19:07:57.931Z,10.70
2022-11-05T19:10:26.090Z,10.60
2022-11-05T19:12:55.512Z,10.60
2022-11-05T19:15:24.554Z,10.60
2022-11-05T19:17:52.525Z,10.60
2022-11-05T19:20:20.642Z,10.70
2022-11-05T19:22:49.090Z,10.70
2022-11-05T19:25:17.027Z,10.70
2022-11-05T19:27:45.342Z,10.60
2022-11-05T19:30:15.034Z,10.60
2022-11-05T19:32:43.036Z,10.50
2022-11-05T19:35:11.138Z,10.50
2022-11-05T19:37:39.530Z,10.50
2022-11-05T19:40:09.110Z,10.50
2022-11-05T19:42:37.119Z,10.50
2022-11-05T19:47:55.394Z,10.50
2022-11-05T19:50:23.854Z,10.60
2022-11-05T19:52:52.216Z,10.60
2022-11-05T19:55:20.679Z,10.60
2022-11-05T19:57:48.777Z,10.50
2022-11-05T20:00:17.667Z,10.60
2022-11-05T20:02:46.509Z,10.50
2022-11-05T20:05:18.610Z,10.50
2022-11-05T20:07:51.407Z,10.50
2022-11-05T20:10:21.360Z,10.50
2022-11-05T20:12:49.539Z,10.50
2022-11-05T20:15:19.118Z,10.40
2022-11-05T20:17:51.055Z,10.40
2022-11-05T20:20:21.348Z,10.40
2022-11-05T20:22:49.588Z,10.40
2022-11-05T20:25:17.995Z,10.40
2022-11-05T20:27:46.226Z,10.40
2022-11-05T20:30:14.426Z,10.40
2022-11-05T20:32:43.248Z,10.40
2022-11-05T20:35:11.633Z,10.30
2022-11-05T20:37:41.186Z,10.40
2022-11-05T20:40:10.273Z,10.40
2022-11-05T20:42:38.311Z,10.40
2022-11-05T20:45:07.372Z,10.40
2022-11-05T20:47:38.249Z,10.40
2022-11-05T20:50:07.808Z,10.40
2022-11-05T20:52:36.033Z,10.30
2022-11-05T20:55:09.229Z,10.30
2022-11-05T20:57:37.624Z,10.30
2022-11-05T21:00:07.760Z,10.30
2022-11-05T21:02:36.739Z,10.30
2022-11-05T21:05:07.405Z,10.20
2022-11-05T21:07:36.005Z,10.20
2022-11-05T21:10:06.366Z,10.20
2022-11-05T21:12:34.575Z,10.30
2022-11-05T21:15:02.944Z,10.30
2022-11-05T21:17:31.349Z,10.30
2022-11-05T21:19:59.605Z,10.20
2022-11-05T21:22:27.671Z,10.20
2022-11-05T21:24:56.835Z,10.20
2022-11-05T21:27:26.654Z,10.20
2022-11-05T21:29:54.762Z,10.20
2022-11-05T21:32:22.913Z,10.20
2022-11-05T21:34:51.010Z,10.20
2022-11-05T21:37:19.260Z,10.20
2022-11-05T21:39:47.779Z,10.20
2022-11-05T21:42:15.842Z,10.20
2022-11-05T21:44:45.415Z,10.20
2022-11-05T21:47:13.974Z,10.20
2022-11-05T21:49:42.143Z,10.20
2022-11-05T21:52:30.056Z,10.30
2022-11-05T21:55:15.410Z,10.20
2022-11-05T21:58:01.447Z,10.20
2022-11-05T22:00:30.935Z,10.20
2022-11-05T22:03:02.759Z,10.20
2022-11-05T22:05:30.815Z,10.30
2022-11-05T22:07:58.818Z,10.30
2022-11-05T22:10:27.228Z,10.30
2022-11-05T22:12:55.235Z,10.30
2022-11-05T22:15:23.485Z,10.30
2022-11-05T22:17:53.269Z,10.30
2022-11-05T22:20:21.244Z,10.30
2022-11-05T22:22:49.331Z,10.30
2022-11-05T22:25:17.941Z,10.30
2022-11-05T22:27:45.990Z,10.30
2022-11-05T22:30:15.565Z,10.40
2022-11-05T22:32:43.715Z,10.30
2022-11-05T22:35:13.249Z,10.30
2022-11-05T22:37:41.530Z,10.30
2022-11-05T22:40:10.513Z,10.40
2022-11-05T22:42:38.902Z,10.30
2022-11-05T22:45:07.895Z,10.40
2022-11-05T22:47:35.991Z,10.40
2022-11-05T22:50:04.801Z,10.40
2022-11-05T22:52:34.169Z,10.40
2022-11-05T22:55:04.495Z,10.40
2022-11-05T22:57:32.523Z,10.40
2022-11-05T23:00:00.755Z,10.40
2022-11-05T23:02:28.948Z,10.40
2022-11-05T23:04:57.202Z,10.50
2022-11-05T23:07:42.786Z,10.50
2022-11-05T23:10:29.614Z,10.50
2022-11-05T23:12:57.753Z,10.50
2022-11-05T23:15:43.018Z,10.60
2022-11-05T23:18:29.242Z,10.60
2022-11-05T23:21:17.964Z,10.60
2022-11-05T23:24:07.916Z,10.60
2022-11-05T23:26:50.929Z,10.60
2022-11-05T23:29:19.547Z,10.60
2022-11-05T23:32:05.269Z,10.60
2022-11-05T23:34:33.310Z,10.60
2022-11-05T23:37:18.587Z,10.60
2022-11-05T23:39:46.747Z,10.60
2022-11-05T23:42:33.756Z,10.60
2022-11-05T23:45:19.252Z,10.60
2022-11-05T23:48:05.131Z,10.60
2022-11-05T23:50:38.514Z,10.60
2022-11-05T23:53:08.185Z,10.60
2022-11-05T23:55:36.560Z,10.60
2022-11-05T23:58:06.109Z,10.60
